Swepsonville, North Carolina
Current Conditions -  °F | °C
As of 10:54 PM on Saturday 25 Oct 2014 (Local Time) from KBUY Reporting Station
Clear Clear  
Wind Chill: 60°   Ceiling: Unl
Heat Index: 60°   Visibility: 10mi
Dew Point: 37°   Wind: 7mph
Humidity: 42%   Direction: 220°SW
Pressure: 29.88"   Gusts: NA
Location:  36.03°N, 79.36°W
Report Text: KBUY 260254Z AUTO 22006KT 10SM CLR 16/03 A2988 RMK AO2 SLP115 T01560028 58007
Loading
Personal Weather Stations






























Interactive Weather Map
Tropical Storm Tracking
New forecast layout! Learn more

10-Day Weather Forecast

Advertisements
Track Severe Weather on mobile